Time;durP1;ratioP1;P1;durP2;ratioP2;P2;SDS_P1;SDS_P2;PMS_P1;PMS_P2;Temp;Humidity;BMP_temperature;BMP_pressure;BME280_temperature;BME280_humidity;BME280_pressure;Samples;Min_cycle;Max_cycle;Signal;HPM_P1;HPM_P2
2023/03/11 00:02:24;;;;;;;2.57;0.53;;;15.90;58.60;;;;;;5069065;28;20220;-47
2023/03/11 00:04:55;;;;;;;1.83;0.73;;;15.80;58.60;;;;;;5068214;28;20213;-47
2023/03/11 00:07:27;;;;;;;2.40;0.83;;;15.90;58.60;;;;;;5069579;28;20190;-46
2023/03/11 00:09:58;;;;;;;1.40;0.63;;;15.80;58.60;;;;;;5065579;28;20719;-47
2023/03/11 00:12:29;;;;;;;1.13;0.70;;;15.80;58.70;;;;;;5052464;28;20190;-47
2023/03/11 00:15:12;;;;;;;1.13;0.53;;;15.80;58.70;;;;;;5065991;28;20224;-46
2023/03/11 00:17:42;;;;;;;1.43;0.77;;;15.80;58.80;;;;;;5069150;28;20212;-47
2023/03/11 00:20:22;;;;;;;1.57;0.60;;;15.80;58.80;;;;;;5039471;28;20591;-47
2023/03/11 00:22:51;;;;;;;1.10;0.70;;;15.80;58.90;;;;;;5050183;28;20685;-47
2023/03/11 00:25:20;;;;;;;1.23;0.77;;;15.80;58.90;;;;;;5066217;28;20205;-47
2023/03/11 00:27:49;;;;;;;2.47;0.50;;;15.70;58.80;;;;;;5068502;28;20209;-47
2023/03/11 00:30:26;;;;;;;1.50;0.70;;;15.70;58.80;;;;;;5069350;28;20615;-47
2023/03/11 00:32:58;;;;;;;1.90;0.73;;;15.80;58.80;;;;;;5050008;28;20236;-47
2023/03/11 00:35:32;;;;;;;1.53;0.70;;;15.70;58.80;;;;;;5048442;28;20221;-47
2023/03/11 00:38:14;;;;;;;0.70;0.50;;;15.70;58.80;;;;;;5040899;28;20201;-47
2023/03/11 00:40:46;;;;;;;1.53;0.60;;;15.70;58.90;;;;;;5076025;28;20193;-47
2023/03/11 00:43:15;;;;;;;1.80;0.60;;;15.70;58.90;;;;;;5042943;28;20218;-47
2023/03/11 00:45:43;;;;;;;1.13;0.73;;;15.70;58.90;;;;;;5036058;28;20245;-48
2023/03/11 00:48:14;;;;;;;1.90;0.63;;;15.70;58.90;;;;;;5067564;28;20284;-47
2023/03/11 00:50:49;;;;;;;2.47;0.53;;;15.70;58.90;;;;;;5069205;28;20655;-47
2023/03/11 00:53:20;;;;;;;2.10;0.93;;;15.70;59.00;;;;;;5068425;28;20238;-47
2023/03/11 00:55:55;;;;;;;1.70;0.80;;;15.70;59.00;;;;;;5072623;28;20184;-47
2023/03/11 00:58:27;;;;;;;1.97;0.80;;;15.70;59.00;;;;;;5086205;28;20243;-47
2023/03/11 01:00:59;;;;;;;1.30;0.60;;;15.70;59.10;;;;;;5086847;28;20208;-47
2023/03/11 01:03:27;;;;;;;2.03;0.90;;;15.60;59.00;;;;;;5074260;28;20213;-47
2023/03/11 01:05:57;;;;;;;2.83;0.90;;;15.60;59.00;;;;;;5088418;28;20238;-47
2023/03/11 01:08:30;;;;;;;1.33;0.60;;;15.60;59.00;;;;;;5091341;28;20193;-47
2023/03/11 01:11:02;;;;;;;1.80;0.90;;;15.60;59.10;;;;;;5072456;28;20239;-47
2023/03/11 01:13:35;;;;;;;1.67;0.70;;;15.60;59.10;;;;;;5077621;28;20584;-48
2023/03/11 01:16:04;;;;;;;1.60;0.70;;;15.60;59.10;;;;;;5062369;28;20200;-47
2023/03/11 01:18:34;;;;;;;1.20;0.47;;;15.60;59.10;;;;;;5080525;28;20211;-47
2023/03/11 01:21:06;;;;;;;3.17;0.90;;;15.60;59.20;;;;;;5083849;28;20231;-47
2023/03/11 01:23:38;;;;;;;1.37;0.50;;;15.60;59.20;;;;;;5085382;28;20200;-47
2023/03/11 01:26:29;;;;;;;2.70;0.90;;;15.60;59.20;;;;;;5054296;28;20221;-46
2023/03/11 01:28:59;;;;;;;3.13;0.97;;;15.60;59.20;;;;;;5074089;28;20200;-47
2023/03/11 01:31:30;;;;;;;2.20;1.00;;;15.60;59.60;;;;;;5084729;28;20197;-47
2023/03/11 01:34:00;;;;;;;2.90;1.00;;;15.60;59.30;;;;;;5084938;28;20458;-47
2023/03/11 01:36:32;;;;;;;1.30;0.97;;;15.60;59.30;;;;;;5079506;28;20178;-47
2023/03/11 01:39:02;;;;;;;2.30;0.70;;;15.50;59.20;;;;;;5080535;28;20224;-47
2023/03/11 01:41:31;;;;;;;1.87;0.73;;;15.50;59.30;;;;;;5086544;28;20189;-47
2023/03/11 01:44:03;;;;;;;0.70;0.50;;;15.50;59.20;;;;;;5090269;28;20193;-47
2023/03/11 01:47:05;;;;;;;3.43;0.60;;;15.50;59.30;;;;;;5069125;28;20211;-47
2023/03/11 01:49:40;;;;;;;1.27;0.50;;;15.50;59.30;;;;;;5082284;28;20229;-47
2023/03/11 01:52:12;;;;;;;1.60;0.60;;;15.50;59.40;;;;;;5087196;28;20652;-47
2023/03/11 01:54:41;;;;;;;2.23;0.50;;;15.50;59.30;;;;;;5054174;28;20257;-47
2023/03/11 01:57:14;;;;;;;1.30;0.70;;;15.50;59.40;;;;;;5061223;28;20193;-47
2023/03/11 01:59:48;;;;;;;2.30;0.70;;;15.50;59.30;;;;;;5037779;28;20208;-47
2023/03/11 02:02:39;;;;;;;1.10;0.70;;;15.50;59.30;;;;;;5050796;28;20201;-47
2023/03/11 02:05:21;;;;;;;1.97;0.60;;;15.50;59.30;;;;;;5039943;28;20283;-47
2023/03/11 02:07:55;;;;;;;3.80;0.80;;;15.40;59.30;;;;;;5068714;28;20560;-47
2023/03/11 02:10:25;;;;;;;1.20;0.67;;;15.50;59.40;;;;;;5047812;28;20229;-47
2023/03/11 02:12:58;;;;;;;0.60;0.60;;;15.40;59.40;;;;;;5063526;28;20239;-47
2023/03/11 02:15:30;;;;;;;1.27;0.50;;;15.50;60.00;;;;;;5064212;28;20205;-47
2023/03/11 02:18:01;;;;;;;0.97;0.50;;;15.40;59.40;;;;;;5062892;28;20519;-47
2023/03/11 02:20:37;;;;;;;1.60;0.60;;;15.50;59.40;;;;;;5058629;28;20555;-47
2023/03/11 02:23:07;;;;;;;2.20;0.83;;;15.40;59.90;;;;;;5062596;28;20558;-47
2023/03/11 02:25:54;;;;;;;1.93;0.87;;;15.50;59.40;;;;;;5065863;28;20351;-47
2023/03/11 02:28:25;;;;;;;1.97;0.70;;;15.40;59.50;;;;;;5050652;28;20631;-47
2023/03/11 02:30:55;;;;;;;1.33;0.80;;;15.40;59.50;;;;;;5049981;28;20213;-46
2023/03/11 02:33:33;;;;;;;0.83;0.60;;;15.40;59.40;;;;;;5066166;28;20379;-47
2023/03/11 02:36:06;;;;;;;1.43;0.60;;;15.40;59.40;;;;;;5053509;28;20197;-46
2023/03/11 02:38:38;;;;;;;1.60;0.60;;;15.40;59.40;;;;;;5043147;28;20198;-46
2023/03/11 02:41:07;;;;;;;1.17;0.80;;;15.40;59.50;;;;;;5065249;28;20201;-46
2023/03/11 02:43:43;;;;;;;1.60;0.60;;;15.40;59.50;;;;;;5054718;28;20328;-46
2023/03/11 02:46:34;;;;;;;2.30;0.80;;;15.40;59.50;;;;;;5063600;28;20221;-46
2023/03/11 02:49:06;;;;;;;0.57;0.53;;;15.40;59.50;;;;;;5067940;28;20197;-46
2023/03/11 02:51:35;;;;;;;1.13;0.53;;;15.30;59.50;;;;;;5078344;28;20198;-47
2023/03/11 02:54:08;;;;;;;2.40;0.80;;;15.30;59.40;;;;;;5067494;28;20265;-47
2023/03/11 02:56:43;;;;;;;1.97;0.83;;;15.30;59.40;;;;;;5056808;28;20542;-46
2023/03/11 02:59:15;;;;;;;0.90;0.53;;;15.30;59.40;;;;;;5060565;28;20817;-46
2023/03/11 03:01:51;;;;;;;1.67;0.60;;;15.30;59.40;;;;;;5067896;28;20593;-46
2023/03/11 03:04:18;;;;;;;1.37;0.47;;;15.30;59.50;;;;;;5067895;28;20649;-46
2023/03/11 03:06:49;;;;;;;2.90;0.47;;;15.30;59.50;;;;;;5060953;28;20269;-46
2023/03/11 03:09:18;;;;;;;1.37;0.50;;;15.30;59.50;;;;;;5062780;28;20210;-46
2023/03/11 03:11:49;;;;;;;1.10;0.73;;;15.30;59.50;;;;;;5068048;28;20645;-46
2023/03/11 03:14:21;;;;;;;0.77;0.60;;;15.30;59.50;;;;;;5050706;28;20193;-46
2023/03/11 03:16:55;;;;;;;0.53;0.50;;;15.30;59.50;;;;;;5054586;28;20546;-47
2023/03/11 03:19:26;;;;;;;1.30;0.87;;;15.30;59.50;;;;;;5049508;28;20199;-46
2023/03/11 03:21:57;;;;;;;4.20;0.83;;;15.30;59.50;;;;;;5063267;28;20213;-46
2023/03/11 03:24:32;;;;;;;1.27;0.90;;;15.30;59.50;;;;;;5066957;28;20197;-46
2023/03/11 03:27:01;;;;;;;3.63;0.80;;;15.30;59.50;;;;;;5056044;28;20590;-46
2023/03/11 03:29:33;;;;;;;2.10;0.90;;;15.30;59.50;;;;;;5062810;28;20565;-46
2023/03/11 03:32:00;;;;;;;3.30;1.17;;;15.30;59.50;;;;;;5068246;28;20240;-47
2023/03/11 03:34:31;;;;;;;1.67;0.60;;;15.20;59.50;;;;;;5063401;28;20217;-46
2023/03/11 03:37:01;;;;;;;2.10;0.63;;;15.30;59.60;;;;;;5066754;28;20217;-46
2023/03/11 03:39:32;;;;;;;1.60;0.50;;;15.20;59.50;;;;;;5058884;28;20546;-46
2023/03/11 03:42:05;;;;;;;1.80;0.70;;;15.20;59.50;;;;;;5071385;28;20557;-46
2023/03/11 03:44:36;;;;;;;1.47;0.70;;;15.20;59.50;;;;;;5067405;28;20273;-46
2023/03/11 03:47:09;;;;;;;2.33;1.00;;;15.20;59.50;;;;;;5053990;28;20206;-46
2023/03/11 03:49:41;;;;;;;1.43;0.43;;;15.20;59.50;;;;;;5052910;28;20811;-47
2023/03/11 03:52:12;;;;;;;1.73;0.60;;;15.20;59.50;;;;;;5068871;28;20217;-46
2023/03/11 03:54:44;;;;;;;1.40;0.70;;;15.20;59.50;;;;;;5070760;28;20237;-46
2023/03/11 03:57:15;;;;;;;0.90;0.60;;;15.20;59.50;;;;;;5043643;28;20209;-46
2023/03/11 03:59:52;;;;;;;1.93;0.90;;;15.20;59.50;;;;;;5056933;28;20300;-46
2023/03/11 04:02:21;;;;;;;1.30;0.73;;;15.20;59.60;;;;;;5053851;28;20821;-46
2023/03/11 04:04:53;;;;;;;2.50;0.80;;;15.10;59.50;;;;;;5053339;28;20190;-46
2023/03/11 04:07:23;;;;;;;2.43;0.60;;;15.20;59.60;;;;;;5070662;28;20182;-48
2023/03/11 04:09:53;;;;;;;2.43;0.80;;;15.10;59.50;;;;;;5067619;28;20240;-46
2023/03/11 04:12:22;;;;;;;0.80;0.60;;;15.20;59.50;;;;;;5070415;28;20202;-46
2023/03/11 04:14:51;;;;;;;1.27;0.60;;;15.20;59.50;;;;;;5053030;28;20200;-46
2023/03/11 04:17:21;;;;;;;1.63;0.70;;;15.10;59.50;;;;;;5068793;28;20212;-46
2023/03/11 04:19:52;;;;;;;1.30;0.60;;;15.10;59.50;;;;;;5068923;28;20252;-46
2023/03/11 04:22:21;;;;;;;1.13;0.80;;;15.20;59.60;;;;;;5052874;28;20249;-46
2023/03/11 04:24:53;;;;;;;1.30;0.70;;;15.10;59.50;;;;;;5070640;28;20201;-47
2023/03/11 04:27:23;;;;;;;1.07;0.60;;;15.10;59.50;;;;;;5052053;28;20533;-46
2023/03/11 04:29:53;;;;;;;2.10;0.77;;;15.10;59.50;;;;;;5052812;28;20193;-46
2023/03/11 04:32:25;;;;;;;1.67;0.70;;;15.10;59.50;;;;;;5070709;28;20578;-46
2023/03/11 04:34:53;;;;;;;2.87;0.70;;;15.10;59.50;;;;;;5061705;28;20216;-46
2023/03/11 04:37:35;;;;;;;0.80;0.80;;;15.10;59.60;;;;;;5066123;28;20300;-46
2023/03/11 04:40:05;;;;;;;4.00;0.53;;;15.10;59.50;;;;;;5047109;28;20212;-46
2023/03/11 04:42:40;;;;;;;1.37;0.83;;;15.10;59.50;;;;;;5064171;28;20690;-46
2023/03/11 04:45:11;;;;;;;1.70;0.93;;;15.10;59.50;;;;;;5059594;28;20288;-46
2023/03/11 04:47:41;;;;;;;1.70;1.00;;;15.10;59.60;;;;;;5061690;28;20186;-46
2023/03/11 04:50:13;;;;;;;1.80;0.87;;;15.10;59.60;;;;;;5069900;28;20259;-47
2023/03/11 04:52:44;;;;;;;3.40;1.23;;;15.00;59.50;;;;;;5065913;28;20197;-47
2023/03/11 04:55:15;;;;;;;1.60;0.67;;;15.10;59.50;;;;;;5049569;28;20233;-46
2023/03/11 04:57:42;;;;;;;1.50;0.50;;;15.10;59.50;;;;;;5048417;28;20215;-46
2023/03/11 05:00:15;;;;;;;1.00;0.70;;;15.10;59.50;;;;;;5052848;28;20196;-46
2023/03/11 05:02:45;;;;;;;1.27;0.60;;;15.00;59.50;;;;;;5070329;28;20213;-46
2023/03/11 05:05:18;;;;;;;1.30;0.63;;;15.00;59.50;;;;;;5067089;28;20552;-46
2023/03/11 05:07:49;;;;;;;1.73;0.90;;;15.00;59.50;;;;;;5069715;28;20205;-47
2023/03/11 05:10:21;;;;;;;1.20;0.63;;;15.00;59.50;;;;;;5065884;28;20206;-46
2023/03/11 05:12:52;;;;;;;1.37;0.60;;;15.00;59.50;;;;;;5069898;28;20224;-46
2023/03/11 05:15:21;;;;;;;1.37;0.73;;;15.00;59.60;;;;;;5047890;28;20247;-46
2023/03/11 05:17:51;;;;;;;1.43;0.90;;;15.00;59.70;;;;;;5052358;28;20198;-46
2023/03/11 05:20:22;;;;;;;2.10;1.00;;;15.00;59.70;;;;;;5051983;28;20198;-46
2023/03/11 05:22:51;;;;;;;2.10;0.90;;;15.00;59.60;;;;;;5049575;28;20318;-46
2023/03/11 05:25:22;;;;;;;1.63;0.83;;;15.00;59.60;;;;;;5068248;28;20186;-46
2023/03/11 05:27:56;;;;;;;2.07;0.80;;;15.00;59.70;;;;;;5057093;28;20190;-46
2023/03/11 05:30:26;;;;;;;1.47;0.50;;;15.00;59.70;;;;;;5069705;28;20208;-46
2023/03/11 05:32:56;;;;;;;0.70;0.40;;;14.90;59.70;;;;;;5050809;28;20735;-46
2023/03/11 05:35:28;;;;;;;1.90;0.70;;;14.90;59.70;;;;;;5068202;28;20198;-51
2023/03/11 05:37:58;;;;;;;2.60;0.70;;;14.90;59.70;;;;;;5069445;28;20233;-47
2023/03/11 05:40:27;;;;;;;1.40;0.80;;;15.00;59.80;;;;;;5069552;28;20696;-46
2023/03/11 05:42:56;;;;;;;1.83;0.70;;;14.90;59.70;;;;;;5032459;28;20240;-46
2023/03/11 05:45:26;;;;;;;1.43;0.80;;;14.90;59.70;;;;;;5056849;28;20221;-46
2023/03/11 05:47:54;;;;;;;3.90;1.10;;;14.90;59.70;;;;;;5057269;28;20697;-46
2023/03/11 05:50:25;;;;;;;2.03;1.07;;;15.00;59.80;;;;;;5069549;28;20205;-47
2023/03/11 05:52:54;;;;;;;1.67;1.07;;;14.90;59.70;;;;;;5069015;28;20225;-46
2023/03/11 05:55:24;;;;;;;1.20;0.70;;;14.90;59.70;;;;;;5049732;28;20237;-46
2023/03/11 05:57:56;;;;;;;2.00;0.90;;;14.90;59.60;;;;;;5065668;28;20690;-46
2023/03/11 06:00:28;;;;;;;1.53;0.80;;;14.90;59.50;;;;;;5051075;28;20216;-46
2023/03/11 06:02:58;;;;;;;2.27;0.70;;;14.90;59.50;;;;;;5067960;28;20206;-46
2023/03/11 06:05:27;;;;;;;2.03;0.53;;;14.90;59.50;;;;;;5066076;28;20312;-46
2023/03/11 06:07:57;;;;;;;2.10;0.97;;;14.90;59.50;;;;;;5069078;28;20209;-46
2023/03/11 06:10:27;;;;;;;1.30;0.90;;;14.90;59.40;;;;;;5065005;28;20241;-48
2023/03/11 06:12:57;;;;;;;0.63;0.60;;;14.90;59.40;;;;;;5032523;28;20202;-46
2023/03/11 06:15:27;;;;;;;2.43;0.60;;;14.90;59.40;;;;;;5062815;28;20205;-46
2023/03/11 06:17:58;;;;;;;2.07;1.00;;;14.90;59.40;;;;;;5051164;28;20197;-46
2023/03/11 06:20:42;;;;;;;2.20;0.90;;;14.80;59.30;;;;;;5040477;28;20277;-46
2023/03/11 06:23:14;;;;;;;1.47;0.80;;;14.80;59.30;;;;;;5061973;28;20245;-46
2023/03/11 06:26:00;;;;;;;3.57;0.80;;;14.80;59.20;;;;;;5064715;28;20194;-47
2023/03/11 06:28:33;;;;;;;1.47;1.03;;;14.80;59.20;;;;;;5046755;28;20201;-46
2023/03/11 06:31:27;;;;;;;2.60;1.13;;;14.80;59.20;;;;;;5032707;28;21202;-46
2023/03/11 06:34:01;;;;;;;5.23;0.80;;;14.80;59.10;;;;;;5043538;28;20669;-46
2023/03/11 06:36:31;;;;;;;4.50;1.00;;;14.80;59.10;;;;;;5067436;28;20278;-47
2023/03/11 06:39:01;;;;;;;1.67;0.77;;;14.80;59.10;;;;;;5067099;28;20202;-46
2023/03/11 06:41:33;;;;;;;1.73;0.80;;;14.80;59.00;;;;;;5031133;28;20264;-46
2023/03/11 06:44:05;;;;;;;1.50;0.70;;;14.80;58.90;;;;;;5049488;28;20856;-46
2023/03/11 06:46:37;;;;;;;3.37;0.97;;;14.80;58.90;;;;;;5052098;28;20210;-45
2023/03/11 06:49:13;;;;;;;1.37;0.63;;;14.80;58.90;;;;;;5065023;28;20193;-47
2023/03/11 06:51:43;;;;;;;1.83;0.90;;;14.80;58.90;;;;;;5055614;28;20222;-46
2023/03/11 06:54:15;;;;;;;1.20;0.83;;;14.80;58.90;;;;;;5066382;28;20271;-46
2023/03/11 06:56:53;;;;;;;1.63;1.00;;;14.80;58.90;;;;;;5067658;28;20211;-47
2023/03/11 06:59:22;;;;;;;1.60;1.17;;;14.80;58.80;;;;;;5046921;28;20208;-46
2023/03/11 07:01:53;;;;;;;1.43;1.00;;;14.80;58.80;;;;;;5068346;28;20185;-46
2023/03/11 07:04:22;;;;;;;1.87;0.70;;;14.80;58.80;;;;;;5051596;28;20675;-46
2023/03/11 07:06:53;;;;;;;2.17;0.87;;;14.80;58.80;;;;;;5066925;28;20223;-46
2023/03/11 07:09:24;;;;;;;0.70;0.60;;;14.70;58.70;;;;;;5069854;28;20550;-46
2023/03/11 07:11:52;;;;;;;2.40;1.10;;;14.70;58.80;;;;;;5058959;28;20642;-47
2023/03/11 07:14:21;;;;;;;4.97;1.10;;;14.70;58.80;;;;;;5054703;28;20202;-46
2023/03/11 07:16:52;;;;;;;0.80;0.80;;;14.70;58.80;;;;;;5065871;28;20193;-46
2023/03/11 07:19:19;;;;;;;1.30;0.83;;;14.70;58.70;;;;;;5065150;28;20232;-46
2023/03/11 07:21:50;;;;;;;0.73;0.53;;;14.70;58.70;;;;;;5058710;28;20264;-47
2023/03/11 07:24:20;;;;;;;1.00;0.90;;;14.70;58.60;;;;;;5068902;28;20214;-46
2023/03/11 07:26:50;;;;;;;1.10;0.73;;;14.70;58.50;;;;;;5065794;28;20182;-46
2023/03/11 07:29:21;;;;;;;2.87;0.80;;;14.70;58.50;;;;;;5062771;28;20282;-46
2023/03/11 07:31:52;;;;;;;1.30;0.97;;;14.80;58.40;;;;;;5065695;28;20182;-47
2023/03/11 07:34:24;;;;;;;1.90;0.97;;;14.70;58.30;;;;;;5066460;28;20667;-46
2023/03/11 07:36:54;;;;;;;49.00;10.40;;;14.70;58.30;;;;;;5067279;28;20206;-46
2023/03/11 07:39:22;;;;;;;52.80;12.73;;;14.80;58.40;;;;;;5063957;28;20201;-46
2023/03/11 07:41:49;;;;;;;59.00;12.13;;;14.80;58.50;;;;;;5067477;28;20243;-46
2023/03/11 07:44:20;;;;;;;50.33;11.27;;;14.80;58.40;;;;;;5049555;28;20851;-46
2023/03/11 07:46:52;;;;;;;47.90;10.40;;;14.80;58.20;;;;;;5057289;28;20284;-47
2023/03/11 07:49:22;;;;;;;47.23;10.43;;;14.80;58.20;;;;;;5054786;28;20194;-46
2023/03/11 07:51:55;;;;;;;38.27;10.87;;;14.80;58.10;;;;;;5067253;28;20186;-46
2023/03/11 07:54:26;;;;;;;30.37;8.97;;;14.80;58.00;;;;;;5069963;28;20971;-46
2023/03/11 07:56:54;;;;;;;30.33;9.30;;;14.80;58.00;;;;;;5078732;28;20209;-46
2023/03/11 07:59:24;;;;;;;31.70;9.00;;;14.80;58.00;;;;;;5061288;28;20303;-46
2023/03/11 08:01:55;;;;;;;37.03;9.83;;;14.80;57.90;;;;;;5061064;28;20277;-47
2023/03/11 08:04:29;;;;;;;27.90;8.00;;;14.80;58.40;;;;;;5079357;28;20280;-46
2023/03/11 08:06:59;;;;;;;25.73;7.83;;;14.80;58.30;;;;;;5063745;28;20220;-46
2023/03/11 08:09:32;;;;;;;37.60;8.23;;;14.80;58.20;;;;;;5072227;28;20248;-46
2023/03/11 08:12:00;;;;;;;23.03;7.27;;;14.80;58.10;;;;;;5087595;28;20197;-46
2023/03/11 08:14:29;;;;;;;24.00;6.63;;;14.80;58.20;;;;;;5071962;28;20186;-47
2023/03/11 08:16:59;;;;;;;23.40;6.83;;;14.80;58.10;;;;;;5076431;28;20189;-46
2023/03/11 08:19:27;;;;;;;18.47;5.77;;;14.80;58.10;;;;;;5087101;28;20595;-46
2023/03/11 08:21:56;;;;;;;18.87;6.00;;;14.80;58.00;;;;;;5076380;28;20226;-46
2023/03/11 08:24:29;;;;;;;16.73;5.37;;;14.80;58.00;;;;;;5077160;28;20197;-46
2023/03/11 08:26:58;;;;;;;16.93;4.93;;;14.80;58.00;;;;;;5061732;28;20640;-46
2023/03/11 08:29:27;;;;;;;15.10;4.70;;;14.80;58.00;;;;;;5063154;28;20410;-47
2023/03/11 08:31:58;;;;;;;18.43;5.03;;;14.80;58.00;;;;;;5090069;28;20216;-46
2023/03/11 08:34:29;;;;;;;14.43;4.47;;;14.80;57.90;;;;;;5076502;28;20213;-46
2023/03/11 08:37:00;;;;;;;13.70;4.33;;;14.80;57.80;;;;;;5064984;28;20216;-46
2023/03/11 08:39:30;;;;;;;12.53;4.00;;;14.80;57.90;;;;;;5046723;28;20206;-47
2023/03/11 08:42:02;;;;;;;14.83;3.87;;;14.80;57.80;;;;;;5067366;28;20214;-46
2023/03/11 08:44:33;;;;;;;11.93;3.73;;;14.80;58.00;;;;;;5074868;28;20252;-46
2023/03/11 08:47:04;;;;;;;10.23;3.40;;;14.80;57.90;;;;;;5076590;28;20602;-46
2023/03/11 08:49:35;;;;;;;10.17;3.80;;;14.80;57.80;;;;;;5090639;28;20209;-46
2023/03/11 08:52:06;;;;;;;8.67;3.43;;;14.80;57.80;;;;;;5087059;28;20208;-46
2023/03/11 08:54:36;;;;;;;12.83;3.60;;;14.80;57.70;;;;;;5066928;28;20233;-46
2023/03/11 08:57:05;;;;;;;8.67;3.37;;;14.80;57.80;;;;;;5078123;28;20201;-46
2023/03/11 08:59:35;;;;;;;8.80;2.90;;;14.80;57.80;;;;;;5088389;28;20200;-46
2023/03/11 09:02:02;;;;;;;7.63;2.70;;;14.80;57.80;;;;;;5077776;28;20626;-46
2023/03/11 09:04:32;;;;;;;8.77;2.67;;;14.80;57.70;;;;;;5085263;28;20394;-46
2023/03/11 09:07:04;;;;;;;9.90;2.37;;;14.80;57.70;;;;;;5066373;28;20193;-46
2023/03/11 09:09:36;;;;;;;9.13;2.60;;;14.80;57.70;;;;;;5067775;28;20665;-46
2023/03/11 09:12:07;;;;;;;5.80;2.07;;;14.80;57.70;;;;;;5087553;28;20193;-46
2023/03/11 09:14:36;;;;;;;6.10;2.33;;;14.80;57.70;;;;;;5081215;28;20216;-46
2023/03/11 09:17:10;;;;;;;7.50;2.77;;;14.80;57.70;;;;;;5081558;28;20232;-46
2023/03/11 09:19:40;;;;;;;7.00;2.33;;;14.80;57.80;;;;;;5045261;28;20209;-46
2023/03/11 09:22:11;;;;;;;4.97;1.90;;;14.80;57.70;;;;;;5083905;28;20220;-46
2023/03/11 09:24:40;;;;;;;5.73;2.20;;;14.80;57.70;;;;;;5087473;28;20223;-46
2023/03/11 09:27:09;;;;;;;4.80;2.23;;;14.80;57.80;;;;;;5076450;28;20223;-46
2023/03/11 09:29:43;;;;;;;4.60;2.23;;;14.80;57.80;;;;;;5062587;28;20194;-46
2023/03/11 09:32:14;;;;;;;5.10;2.20;;;14.80;57.80;;;;;;5085263;28;20246;-46
2023/03/11 09:34:44;;;;;;;3.00;1.60;;;14.80;57.70;;;;;;5083510;28;20524;-46
2023/03/11 09:37:14;;;;;;;4.10;1.53;;;14.90;57.80;;;;;;5084112;28;20193;-46
2023/03/11 09:39:47;;;;;;;4.93;2.00;;;14.90;57.70;;;;;;5087493;28;20201;-46
2023/03/11 09:42:42;;;;;;;4.77;2.23;;;14.90;57.70;;;;;;5085901;28;20197;-46
2023/03/11 09:45:25;;;;;;;4.50;1.80;;;14.90;57.80;;;;;;5058675;28;20197;-46
2023/03/11 09:48:20;;;;;;;3.83;1.83;;;14.90;57.70;;;;;;5069648;28;20195;-46
2023/03/11 09:51:38;;;;;;;8.80;1.50;;;14.90;57.70;;;;;;5075807;28;20197;-46
2023/03/11 09:54:13;;;;;;;4.63;2.00;;;14.90;57.80;;;;;;5060157;28;20193;-46
2023/03/11 09:56:45;;;;;;;4.87;1.50;;;14.90;57.70;;;;;;5078890;28;20228;-46
2023/03/11 09:59:26;;;;;;;4.73;1.40;;;14.90;57.70;;;;;;5082529;28;20216;-45
2023/03/11 10:01:57;;;;;;;1.47;1.00;;;14.90;57.70;;;;;;5085333;28;20663;-46
2023/03/11 10:05:04;;;;;;;3.67;1.70;;;14.90;57.60;;;;;;5063805;28;20221;-46
2023/03/11 10:07:45;;;;;;;4.00;1.30;;;14.90;57.70;;;;;;5062291;28;20209;-46
2023/03/11 10:10:16;;;;;;;1.53;1.10;;;15.00;57.60;;;;;;5082168;28;20220;-46
2023/03/11 10:13:06;;;;;;;1.90;1.30;;;15.00;57.60;;;;;;5078860;28;20220;-46
2023/03/11 10:16:02;;;;;;;2.00;1.10;;;15.00;57.60;;;;;;5084099;28;20200;-46
2023/03/11 10:19:10;;;;;;;2.17;1.10;;;15.00;57.60;;;;;;5077535;28;20220;-47
2023/03/11 10:22:18;;;;;;;2.63;1.30;;;15.00;57.60;;;;;;5071403;28;20217;-46
2023/03/11 10:25:10;;;;;;;1.90;1.00;;;15.00;57.60;;;;;;5081366;28;20225;-46
2023/03/11 10:28:14;;;;;;;3.70;1.40;;;15.00;57.50;;;;;;5066534;28;20185;-47
2023/03/11 10:31:17;;;;;;;2.60;0.80;;;15.00;57.60;;;;;;5083731;28;20192;-46
2023/03/11 10:34:09;;;;;;;4.10;1.20;;;15.00;57.60;;;;;;5086338;28;20664;-46
2023/03/11 10:37:11;;;;;;;2.93;1.00;;;15.10;57.60;;;;;;5088591;28;20285;-46
2023/03/11 10:39:42;;;;;;;3.33;1.10;;;15.10;57.60;;;;;;5077118;28;20279;-46
2023/03/11 10:42:19;;;;;;;1.50;0.90;;;15.10;57.60;;;;;;5089369;28;20201;-46
2023/03/11 10:44:50;;;;;;;1.20;1.10;;;15.10;57.70;;;;;;5080547;28;20645;-46
2023/03/11 10:47:28;;;;;;;3.97;1.00;;;15.10;57.60;;;;;;5081144;28;20205;-46
2023/03/11 10:50:00;;;;;;;3.07;1.07;;;15.10;57.60;;;;;;5074077;28;20196;-46
2023/03/11 10:52:28;;;;;;;1.10;0.70;;;15.10;57.60;;;;;;5085286;28;20756;-46
2023/03/11 10:55:01;;;;;;;2.53;1.17;;;15.10;57.50;;;;;;5066586;28;20236;-46
2023/03/11 10:57:40;;;;;;;0.80;0.60;;;15.10;57.50;;;;;;5070129;28;20243;-46
2023/03/11 11:00:31;;;;;;;3.23;1.17;;;15.20;57.60;;;;;;5089318;28;20196;-46
2023/03/11 11:03:05;;;;;;;2.83;1.03;;;15.20;57.50;;;;;;5073844;28;20250;-46
2023/03/11 11:05:36;;;;;;;4.83;0.97;;;15.20;57.40;;;;;;5084055;28;20213;-46
2023/03/11 11:08:18;;;;;;;1.80;0.63;;;15.20;57.50;;;;;;5091551;28;20768;-47
2023/03/11 11:11:04;;;;;;;1.20;0.93;;;15.20;57.40;;;;;;5045567;28;20217;-48
2023/03/11 11:13:37;;;;;;;1.57;0.70;;;15.20;57.30;;;;;;5083064;28;20219;-46
2023/03/11 11:16:21;;;;;;;1.80;0.90;;;15.20;57.50;;;;;;5089577;28;20205;-46
2023/03/11 11:19:09;;;;;;;2.13;1.20;;;15.20;57.50;;;;;;5064051;28;20666;-46
2023/03/11 11:21:51;;;;;;;1.63;0.83;;;15.20;57.50;;;;;;5072921;28;20611;-46
2023/03/11 11:24:29;;;;;;;2.53;0.80;;;15.30;57.40;;;;;;5081418;28;20213;-46
2023/03/11 11:27:24;;;;;;;2.23;1.60;;;15.20;57.40;;;;;;5061861;28;20207;-46
2023/03/11 11:30:16;;;;;;;1.70;1.10;;;15.30;57.40;;;;;;5083066;28;20189;-46
2023/03/11 11:32:52;;;;;;;2.00;1.33;;;15.30;57.40;;;;;;5078037;28;20193;-46
2023/03/11 11:35:24;;;;;;;4.23;1.77;;;15.30;57.30;;;;;;5081689;28;20295;-46
2023/03/11 11:38:01;;;;;;;4.23;1.70;;;15.30;57.30;;;;;;5071315;28;20547;-47
2023/03/11 11:40:37;;;;;;;3.07;1.60;;;15.30;57.40;;;;;;5043767;28;20291;-46
2023/03/11 11:43:23;;;;;;;5.43;1.80;;;15.30;57.40;;;;;;5050469;28;20695;-46
2023/03/11 11:46:01;;;;;;;1.70;1.20;;;15.30;57.40;;;;;;5062008;28;20229;-46
2023/03/11 11:48:49;;;;;;;3.20;1.70;;;15.30;57.40;;;;;;5069916;28;20192;-46
2023/03/11 11:51:32;;;;;;;4.80;1.40;;;15.40;57.50;;;;;;5086407;28;20196;-46
2023/03/11 11:54:39;;;;;;;1.47;0.97;;;15.30;57.50;;;;;;5066105;28;20221;-46
2023/03/11 11:57:25;;;;;;;3.37;1.10;;;15.40;57.50;;;;;;5069322;28;20820;-46
2023/03/11 11:59:57;;;;;;;1.90;1.10;;;15.40;57.60;;;;;;5082616;28;20205;-46
2023/03/11 12:03:12;;;;;;;2.83;1.10;;;15.40;57.60;;;;;;5083135;28;20192;-46
2023/03/11 12:05:55;;;;;;;2.67;0.97;;;15.40;57.60;;;;;;5095581;28;20197;-46
2023/03/11 12:08:59;;;;;;;1.60;1.13;;;15.40;57.70;;;;;;5075011;28;20522;-47
2023/03/11 12:11:46;;;;;;;2.80;1.00;;;15.50;57.70;;;;;;5075057;28;20547;-46
2023/03/11 12:14:34;;;;;;;5.33;1.23;;;15.40;57.70;;;;;;5074947;28;20198;-46
2023/03/11 12:17:10;;;;;;;2.30;1.00;;;15.40;57.60;;;;;;5074170;28;20204;-46
2023/03/11 12:19:48;;;;;;;2.57;1.30;;;15.40;57.70;;;;;;5085866;28;20611;-46
2023/03/11 12:22:51;;;;;;;3.70;1.73;;;15.40;57.70;;;;;;5066617;28;20220;-46
2023/03/11 12:25:48;;;;;;;4.20;1.60;;;15.40;57.60;;;;;;5086550;28;20197;-46
2023/03/11 12:28:49;;;;;;;2.07;1.47;;;15.40;57.70;;;;;;5090733;28;20188;-46
2023/03/11 12:31:22;;;;;;;3.23;1.83;;;15.40;57.70;;;;;;5087388;28;20181;-46
2023/03/11 12:34:04;;;;;;;3.20;1.77;;;15.40;57.80;;;;;;5058556;28;20209;-46
2023/03/11 12:36:47;;;;;;;2.97;1.70;;;15.40;57.90;;;;;;5058741;28;20218;-46
2023/03/11 12:39:33;;;;;;;2.23;1.20;;;15.40;57.90;;;;;;5072723;28;20635;-46
2023/03/11 12:42:24;;;;;;;1.97;1.10;;;15.50;58.00;;;;;;5067723;28;20276;-46
2023/03/11 12:45:35;;;;;;;1.70;1.43;;;15.40;57.90;;;;;;5071496;28;20205;-46
2023/03/11 12:48:44;;;;;;;4.10;1.43;;;15.40;57.90;;;;;;5086121;28;20578;-47
2023/03/11 12:51:39;;;;;;;1.73;1.13;;;15.50;57.90;;;;;;5081248;28;20205;-46
2023/03/11 12:54:36;;;;;;;1.87;1.30;;;15.50;57.90;;;;;;5065124;28;20185;-47
2023/03/11 12:57:22;;;;;;;3.30;1.50;;;15.50;57.90;;;;;;5064335;28;20229;-46
2023/03/11 13:00:36;;;;;;;3.30;1.90;;;15.50;57.90;;;;;;5094948;28;20572;-46
2023/03/11 13:03:30;;;;;;;2.90;1.57;;;15.50;57.90;;;;;;5081286;28;20204;-46
2023/03/11 13:06:35;;;;;;;3.53;1.70;;;15.50;57.90;;;;;;5088965;28;20216;-46
2023/03/11 13:09:18;;;;;;;1.70;1.10;;;15.50;57.90;;;;;;5072973;28;20190;-46
2023/03/11 13:11:50;;;;;;;2.63;1.43;;;15.50;57.90;;;;;;5078781;28;20600;-46
2023/03/11 13:14:34;;;;;;;3.03;1.40;;;15.50;57.80;;;;;;5093768;28;20185;-46
2023/03/11 13:17:29;;;;;;;2.90;1.40;;;15.50;57.90;;;;;;5078765;28;20193;-46
2023/03/11 13:19:58;;;;;;;2.47;1.33;;;15.50;57.90;;;;;;5088514;28;20196;-46
2023/03/11 13:22:55;;;;;;;1.40;1.00;;;15.50;57.90;;;;;;5058522;28;20666;-46
2023/03/11 13:25:40;;;;;;;2.20;1.40;;;15.50;57.90;;;;;;5076479;28;20221;-46
2023/03/11 13:28:29;;;;;;;1.70;1.13;;;15.50;57.90;;;;;;5074051;28;20181;-46
2023/03/11 13:31:40;;;;;;;1.67;0.93;;;15.50;58.00;;;;;;5073962;28;20193;-46